createdAt,value
2022-08-11T00:00:37.787Z,22.37
2022-08-11T00:02:15.302Z,22.40
2022-08-11T00:03:52.092Z,22.37
2022-08-11T00:05:26.032Z,22.37
2022-08-11T00:07:04.219Z,22.38
2022-08-11T00:08:38.673Z,22.37
2022-08-11T00:10:15.916Z,22.37
2022-08-11T00:11:52.239Z,22.35
2022-08-11T00:13:32.756Z,22.33
2022-08-11T00:15:07.199Z,22.25
2022-08-11T00:16:42.023Z,22.23
2022-08-11T00:18:15.739Z,22.17
2022-08-11T00:20:14.007Z,22.16
2022-08-11T00:22:05.236Z,22.15
2022-08-11T00:23:44.886Z,22.16
2022-08-11T00:25:22.242Z,22.08
2022-08-11T00:26:56.285Z,22.03
2022-08-11T00:28:31.359Z,21.98
2022-08-11T00:30:06.219Z,21.95
2022-08-11T00:31:43.905Z,21.92
2022-08-11T00:33:18.937Z,21.86
2022-08-11T00:34:52.772Z,21.81
2022-08-11T00:36:52.814Z,21.69
2022-08-11T00:38:30.748Z,21.57
2022-08-11T00:40:07.281Z,21.50
2022-08-11T00:41:46.725Z,21.38
2022-08-11T00:43:43.202Z,21.30
2022-08-11T00:45:25.133Z,21.16
2022-08-11T00:47:11.053Z,21.19
2022-08-11T00:48:55.074Z,21.10
2022-08-11T00:50:38.965Z,21.03
2022-08-11T00:52:25.302Z,20.91
2022-08-11T00:54:10.145Z,20.80
2022-08-11T00:56:21.556Z,20.73
2022-08-11T00:58:51.282Z,20.67
2022-08-11T01:00:28.465Z,20.62
2022-08-11T01:02:15.992Z,20.59
2022-08-11T01:04:11.150Z,20.54
2022-08-11T01:06:09.412Z,20.50
2022-08-11T01:08:11.163Z,20.48
2022-08-11T01:10:07.127Z,20.47
2022-08-11T01:12:14.532Z,20.46
2022-08-11T01:14:33.731Z,20.46
2022-08-11T01:16:46.900Z,20.40
2022-08-11T01:18:57.849Z,20.38
2022-08-11T01:21:05.151Z,20.33
2022-08-11T01:23:25.795Z,20.28
2022-08-11T01:25:56.963Z,20.28
2022-08-11T01:27:54.817Z,20.24
2022-08-11T01:30:02.970Z,20.26
2022-08-11T01:32:03.644Z,20.21
2022-08-11T01:34:28.064Z,20.32
2022-08-11T01:36:34.314Z,20.33
2022-08-11T01:38:31.278Z,20.32
2022-08-11T01:40:45.972Z,20.29
2022-08-11T01:43:16.934Z,20.24
2022-08-11T01:45:16.251Z,20.20
2022-08-11T01:46:55.688Z,20.21
2022-08-11T01:48:43.476Z,20.19
2022-08-11T01:50:24.514Z,20.13
2022-08-11T01:52:13.336Z,20.16
2022-08-11T01:53:58.543Z,20.18
2022-08-11T01:55:44.824Z,20.16
2022-08-11T01:57:35.968Z,20.14
2022-08-11T01:59:16.058Z,20.13
2022-08-11T02:00:59.565Z,20.11
2022-08-11T02:02:47.932Z,20.07
2022-08-11T02:04:32.491Z,20.06
2022-08-11T02:06:30.224Z,20.02
2022-08-11T02:08:12.314Z,20.08
2022-08-11T02:10:35.554Z,20.08
2022-08-11T02:12:17.799Z,20.07
2022-08-11T02:13:58.709Z,20.09
2022-08-11T02:15:44.883Z,20.14
2022-08-11T02:17:24.451Z,20.15
2022-08-11T02:19:37.714Z,20.17
2022-08-11T02:21:34.804Z,20.23
2022-08-11T02:24:05.744Z,20.23
2022-08-11T02:25:44.358Z,20.21
2022-08-11T02:27:23.641Z,20.20
2022-08-11T02:29:10.991Z,20.24
2022-08-11T02:32:24.540Z,20.25
2022-08-11T02:33:27.431Z,20.31
2022-08-11T02:35:20.365Z,20.33
2022-08-11T02:37:01.326Z,20.36
2022-08-11T02:38:47.176Z,20.38
2022-08-11T02:40:31.451Z,20.33
2022-08-11T02:42:36.182Z,20.32
2022-08-11T02:44:26.005Z,20.29
2022-08-11T02:46:18.110Z,20.30
2022-08-11T02:48:19.731Z,20.27
2022-08-11T02:50:06.682Z,20.26
2022-08-11T02:51:56.012Z,20.25
2022-08-11T02:53:38.573Z,20.31
2022-08-11T02:55:56.575Z,20.32
2022-08-11T02:57:29.366Z,20.33
2022-08-11T02:59:26.399Z,20.31
2022-08-11T03:01:11.721Z,20.24
2022-08-11T03:02:55.489Z,20.18
2022-08-11T03:04:38.824Z,20.14
2022-08-11T03:06:21.449Z,20.10
2022-08-11T03:08:10.902Z,20.08
2022-08-11T03:09:51.113Z,20.06
2022-08-11T03:12:01.527Z,20.03
2022-08-11T03:14:06.695Z,19.95
2022-08-11T03:16:06.803Z,19.86
2022-08-11T03:17:51.176Z,19.84
2022-08-11T03:19:31.319Z,19.84
2022-08-11T03:21:11.109Z,19.86
2022-08-11T03:22:58.158Z,19.93
2022-08-11T03:24:43.749Z,19.91
2022-08-11T03:26:27.903Z,19.88
2022-08-11T03:28:10.101Z,19.92
2022-08-11T03:30:02.969Z,19.89
2022-08-11T03:31:42.695Z,19.88
2022-08-11T03:33:41.719Z,19.92
2022-08-11T03:35:21.386Z,19.93
2022-08-11T03:37:34.682Z,19.86
2022-08-11T03:39:17.901Z,19.93
2022-08-11T03:42:01.319Z,19.97
2022-08-11T03:43:30.057Z,19.98
2022-08-11T03:45:25.333Z,19.89
2022-08-11T03:47:14.828Z,19.91
2022-08-11T03:48:55.688Z,19.92
2022-08-11T03:50:55.733Z,19.92
2022-08-11T03:52:43.737Z,19.92
2022-08-11T03:54:27.968Z,19.87
2022-08-11T03:56:45.173Z,19.93
2022-08-11T03:58:49.281Z,19.93
2022-08-11T04:00:40.883Z,19.92
2022-08-11T04:02:42.037Z,19.90
2022-08-11T04:04:56.151Z,19.88
2022-08-11T04:07:17.760Z,19.84
2022-08-11T04:09:38.972Z,19.77
2022-08-11T04:12:00.263Z,19.89
2022-08-11T04:14:19.792Z,19.92
2022-08-11T04:16:26.095Z,19.92
2022-08-11T04:18:35.460Z,19.96
2022-08-11T04:20:44.640Z,20.02
2022-08-11T04:23:07.122Z,20.08
2022-08-11T04:25:31.579Z,20.17
2022-08-11T04:27:37.290Z,20.26
2022-08-11T04:29:35.903Z,20.34
2022-08-11T04:31:50.841Z,20.45
2022-08-11T04:33:42.309Z,20.52
2022-08-11T04:35:27.812Z,20.66
2022-08-11T04:37:34.948Z,20.74
2022-08-11T04:39:20.249Z,20.84
2022-08-11T04:42:04.388Z,20.92
2022-08-11T04:44:13.043Z,20.97
2022-08-11T04:46:19.100Z,21.00
2022-08-11T04:48:33.167Z,21.04
2022-08-11T04:51:08.764Z,20.99
2022-08-11T04:53:29.196Z,20.96
2022-08-11T04:55:56.419Z,21.00
2022-08-11T04:58:06.408Z,21.07
2022-08-11T05:00:14.765Z,21.22
2022-08-11T05:02:16.700Z,21.39
2022-08-11T05:04:43.628Z,21.51
2022-08-11T05:06:58.727Z,21.54
2022-08-11T05:09:17.977Z,21.55
2022-08-11T05:11:08.399Z,21.63
2022-08-11T05:12:47.522Z,21.90
2022-08-11T05:15:05.684Z,22.06
2022-08-11T05:17:04.942Z,22.27
2022-08-11T05:19:04.313Z,22.34
2022-08-11T05:21:05.221Z,22.89
2022-08-11T05:23:03.004Z,23.61
2022-08-11T05:25:01.324Z,24.34
2022-08-11T05:27:03.375Z,24.99
2022-08-11T05:28:59.567Z,25.11
2022-08-11T05:30:54.314Z,25.39
2022-08-11T05:32:59.398Z,25.94
2022-08-11T05:34:56.943Z,26.48
2022-08-11T05:36:42.177Z,26.85
2022-08-11T05:38:39.462Z,27.22
2022-08-11T05:40:32.479Z,27.68
2022-08-11T05:42:29.988Z,28.01
2022-08-11T05:44:23.184Z,27.80
2022-08-11T05:46:17.744Z,27.37
2022-08-11T05:48:08.545Z,27.77
2022-08-11T05:50:01.545Z,28.16
2022-08-11T05:52:05.451Z,27.98
2022-08-11T05:54:28.426Z,27.49
2022-08-11T05:56:20.240Z,27.31
2022-08-11T05:57:57.741Z,27.11
2022-08-11T05:59:32.673Z,27.15
2022-08-11T06:01:06.215Z,26.99
2022-08-11T06:02:43.841Z,26.40
2022-08-11T06:04:21.054Z,26.31
2022-08-11T06:05:54.952Z,26.22
2022-08-11T06:07:48.578Z,26.06
2022-08-11T06:09:29.429Z,26.07
2022-08-11T06:11:06.484Z,25.93
2022-08-11T06:12:40.972Z,25.76
2022-08-11T06:14:15.826Z,25.54
2022-08-11T06:15:52.220Z,25.42
2022-08-11T06:17:38.647Z,25.34
2022-08-11T06:19:14.324Z,25.26
2022-08-11T06:20:49.810Z,25.26
2022-08-11T06:22:24.152Z,25.26
2022-08-11T06:24:00.822Z,25.14
2022-08-11T06:25:35.921Z,25.08
2022-08-11T06:27:13.053Z,25.13
2022-08-11T06:28:49.358Z,25.08
2022-08-11T06:30:35.298Z,24.95
2022-08-11T06:32:13.558Z,25.01
2022-08-11T06:33:57.483Z,25.03
2022-08-11T06:35:40.465Z,25.11
2022-08-11T06:37:23.972Z,25.17
2022-08-11T06:39:08.802Z,25.32
2022-08-11T06:41:11.619Z,25.48
2022-08-11T06:42:56.238Z,25.69
2022-08-11T06:44:34.149Z,25.85
2022-08-11T06:46:11.126Z,25.96
2022-08-11T06:47:48.246Z,26.02
2022-08-11T06:49:41.183Z,26.07
2022-08-11T06:51:15.394Z,26.13
2022-08-11T06:52:48.130Z,26.26
2022-08-11T06:54:24.055Z,26.31
2022-08-11T06:56:18.157Z,26.29
2022-08-11T06:58:09.257Z,26.33
2022-08-11T07:00:00.341Z,26.38
2022-08-11T07:01:49.299Z,26.99
2022-08-11T07:03:24.576Z,27.42
2022-08-11T07:05:02.102Z,27.65
2022-08-11T07:07:10.097Z,27.99
2022-08-11T07:09:38.101Z,28.14
2022-08-11T07:12:25.923Z,28.02
2022-08-11T07:15:12.809Z,27.99
2022-08-11T07:18:00.577Z,28.24
2022-08-11T07:20:47.289Z,29.11
2022-08-11T07:23:05.855Z,29.25
2022-08-11T07:25:02.710Z,29.47
2022-08-11T07:26:54.828Z,30.03
2022-08-11T07:28:47.737Z,30.61
2022-08-11T07:30:21.124Z,30.99
2022-08-11T07:31:55.489Z,31.22
2022-08-11T07:34:07.401Z,31.51
2022-08-11T07:35:34.712Z,31.84
2022-08-11T07:37:13.734Z,32.06
2022-08-11T07:38:51.500Z,32.17
2022-08-11T07:40:25.771Z,31.45
2022-08-11T07:42:00.873Z,31.65
2022-08-11T07:43:36.946Z,31.56
2022-08-11T07:45:29.085Z,31.53
2022-08-11T07:47:20.321Z,31.57
2022-08-11T07:49:11.894Z,31.59
2022-08-11T07:51:04.488Z,31.67
2022-08-11T07:52:40.833Z,31.55
2022-08-11T07:54:17.233Z,31.46
2022-08-11T07:55:54.282Z,31.72
2022-08-11T07:58:14.740Z,32.06
2022-08-11T08:00:03.514Z,32.53
2022-08-11T08:02:08.086Z,32.20
2022-08-11T08:04:01.220Z,32.29
2022-08-11T08:05:53.462Z,32.68
2022-08-11T08:07:44.700Z,32.59
2022-08-11T08:09:41.698Z,32.01
2022-08-11T08:11:33.737Z,32.18
2022-08-11T08:13:25.960Z,32.47
2022-08-11T08:15:17.500Z,32.70
2022-08-11T08:17:08.753Z,32.52
2022-08-11T08:18:42.975Z,32.53
2022-08-11T08:20:20.453Z,31.75
2022-08-11T08:21:54.529Z,31.48
2022-08-11T08:23:40.649Z,31.74
2022-08-11T08:25:17.097Z,32.15
2022-08-11T08:27:00.804Z,32.38
2022-08-11T08:28:35.112Z,32.50
2022-08-11T08:30:27.176Z,32.75
2022-08-11T08:32:02.078Z,32.78
2022-08-11T08:33:37.064Z,33.17
2022-08-11T08:35:12.491Z,33.47
2022-08-11T08:36:47.977Z,33.63
2022-08-11T08:38:21.528Z,33.46
2022-08-11T08:39:55.784Z,33.71
2022-08-11T08:41:33.723Z,33.75
2022-08-11T08:43:10.952Z,33.15
2022-08-11T08:44:48.417Z,32.11
2022-08-11T08:46:31.516Z,32.44
2022-08-11T08:48:09.802Z,32.70
2022-08-11T08:49:50.991Z,32.46
2022-08-11T08:51:58.780Z,32.35
2022-08-11T08:53:34.655Z,31.99
2022-08-11T08:55:11.303Z,31.91
2022-08-11T08:56:47.253Z,31.86
2022-08-11T08:58:23.085Z,31.50
2022-08-11T08:59:58.002Z,31.25
2022-08-11T09:01:37.337Z,31.25
2022-08-11T09:03:40.579Z,31.36
2022-08-11T09:05:09.150Z,31.51
2022-08-11T09:06:44.468Z,31.79
2022-08-11T09:08:24.660Z,31.82
2022-08-11T09:10:00.389Z,31.63
2022-08-11T09:11:53.501Z,31.55
2022-08-11T09:13:28.915Z,31.38
2022-08-11T09:15:06.140Z,30.97
2022-08-11T09:16:40.539Z,30.73
2022-08-11T09:18:14.484Z,30.59
2022-08-11T09:19:56.457Z,30.49
2022-08-11T09:21:44.622Z,29.90
2022-08-11T09:25:55.030Z,29.94
2022-08-11T09:27:28.810Z,29.74
2022-08-11T09:29:05.738Z,29.70
2022-08-11T09:30:42.847Z,29.72
2022-08-11T09:32:20.608Z,29.64
2022-08-11T09:33:56.089Z,29.64
2022-08-11T09:35:30.801Z,29.60
2022-08-11T09:37:54.584Z,29.40
2022-08-11T09:39:35.855Z,29.29
2022-08-11T09:41:10.944Z,29.02
2022-08-11T09:43:02.624Z,29.19
2022-08-11T09:44:49.861Z,29.76
2022-08-11T09:46:28.749Z,30.34
2022-08-11T09:48:05.342Z,30.79
2022-08-11T09:49:39.659Z,31.01
2022-08-11T09:51:14.234Z,31.25
2022-08-11T09:53:16.804Z,31.29
2022-08-11T09:54:48.302Z,31.47
2022-08-11T09:56:42.930Z,31.63
2022-08-11T09:58:43.148Z,31.59
2022-08-11T10:00:15.739Z,31.47
2022-08-11T10:01:52.120Z,31.48
2022-08-11T10:03:27.907Z,31.57
2022-08-11T10:05:16.033Z,31.61
2022-08-11T10:07:07.195Z,31.44
2022-08-11T10:08:41.903Z,31.45
2022-08-11T10:10:15.489Z,31.29
2022-08-11T10:11:55.399Z,31.18
2022-08-11T10:14:33.623Z,30.99
2022-08-11T10:16:00.218Z,30.68
2022-08-11T10:18:06.034Z,30.66
2022-08-11T10:19:39.758Z,30.89
2022-08-11T10:21:16.596Z,31.16
2022-08-11T10:23:07.258Z,31.27
2022-08-11T10:25:02.682Z,31.46
2022-08-11T10:26:54.568Z,31.49
2022-08-11T10:28:36.637Z,31.66
2022-08-11T10:30:35.960Z,31.64
2022-08-11T10:32:31.642Z,31.08
2022-08-11T10:34:05.723Z,30.77
2022-08-11T10:35:43.977Z,30.76
2022-08-11T10:37:19.040Z,30.76
2022-08-11T10:38:52.439Z,30.83
2022-08-11T10:40:26.460Z,30.96
2022-08-11T10:42:41.354Z,30.95
2022-08-11T10:44:15.856Z,31.06
2022-08-11T10:46:06.987Z,31.06
2022-08-11T10:47:48.981Z,31.03
2022-08-11T10:49:24.910Z,30.74
2022-08-11T10:51:13.921Z,30.35
2022-08-11T10:53:07.540Z,30.45
2022-08-11T10:55:00.043Z,30.47
2022-08-11T10:56:55.141Z,30.46
2022-08-11T10:58:49.562Z,30.51
2022-08-11T11:00:24.434Z,30.61
2022-08-11T11:02:02.173Z,30.73
2022-08-11T11:03:38.269Z,30.83
2022-08-11T11:05:16.931Z,30.98
2022-08-11T11:06:55.290Z,31.10
2022-08-11T11:08:49.268Z,31.16
2022-08-11T11:10:26.111Z,31.05
2022-08-11T11:12:21.845Z,30.85
2022-08-11T11:14:13.553Z,30.65
2022-08-11T11:16:06.684Z,30.36
2022-08-11T11:17:57.650Z,30.16
2022-08-11T11:19:32.998Z,30.24
2022-08-11T11:21:08.967Z,30.41
2022-08-11T11:22:42.481Z,30.66
2022-08-11T11:24:37.442Z,30.99
2022-08-11T11:26:39.775Z,31.09
2022-08-11T11:28:38.006Z,30.86
2022-08-11T11:30:15.209Z,30.74
2022-08-11T11:31:58.345Z,30.59
2022-08-11T11:34:06.767Z,30.50
2022-08-11T11:35:57.127Z,30.46
2022-08-11T11:37:33.907Z,30.32
2022-08-11T11:39:08.907Z,30.41
2022-08-11T11:40:43.103Z,30.53
2022-08-11T11:42:18.494Z,30.55
2022-08-11T11:43:52.400Z,30.58
2022-08-11T11:45:26.931Z,30.50
2022-08-11T11:47:01.710Z,30.42
2022-08-11T11:48:36.886Z,30.37
2022-08-11T11:50:10.891Z,30.32
2022-08-11T11:51:50.046Z,30.32
2022-08-11T11:53:24.547Z,30.49
2022-08-11T11:54:59.900Z,30.49
2022-08-11T11:56:34.049Z,30.50
2022-08-11T11:58:25.828Z,30.38
2022-08-11T12:00:17.200Z,30.42
2022-08-11T12:01:51.440Z,30.52
2022-08-11T12:03:27.642Z,30.40
2022-08-11T12:05:02.708Z,30.41
2022-08-11T12:06:37.659Z,30.51
2022-08-11T12:08:16.608Z,30.41
2022-08-11T12:09:50.632Z,30.26
2022-08-11T12:11:43.498Z,30.17
2022-08-11T12:13:36.435Z,30.11
2022-08-11T12:15:11.269Z,30.09
2022-08-11T12:16:47.379Z,30.01
2022-08-11T12:18:21.290Z,29.92
2022-08-11T12:19:54.899Z,29.93
2022-08-11T12:21:32.153Z,29.99
2022-08-11T12:23:23.011Z,29.98
2022-08-11T12:25:23.987Z,30.05
2022-08-11T12:27:17.798Z,30.14
2022-08-11T12:28:51.845Z,30.19
2022-08-11T12:30:25.809Z,30.06
2022-08-11T12:32:00.558Z,30.02
2022-08-11T12:33:37.414Z,29.84
2022-08-11T12:35:16.896Z,29.76
2022-08-11T12:36:57.014Z,29.68
2022-08-11T12:38:32.176Z,29.61
2022-08-11T12:41:11.801Z,29.60
2022-08-11T12:42:55.476Z,29.58
2022-08-11T12:44:48.232Z,29.57
2022-08-11T12:46:24.926Z,29.61
2022-08-11T12:49:00.864Z,29.67
2022-08-11T12:50:34.326Z,29.76
2022-08-11T12:52:15.967Z,29.78
2022-08-11T12:53:57.817Z,29.79
2022-08-11T12:56:03.641Z,29.81
2022-08-11T12:58:00.184Z,29.77
2022-08-11T12:59:52.102Z,29.73
2022-08-11T13:01:43.470Z,29.80
2022-08-11T13:03:37.644Z,29.95
2022-08-11T13:05:14.787Z,30.04
2022-08-11T13:06:48.619Z,30.09
2022-08-11T13:08:25.078Z,30.14
2022-08-11T13:09:59.658Z,30.16
2022-08-11T13:11:55.682Z,30.18
2022-08-11T13:13:52.496Z,30.24
2022-08-11T13:15:26.356Z,30.36
2022-08-11T13:17:18.708Z,30.45
2022-08-11T13:18:53.661Z,30.46
2022-08-11T13:20:28.099Z,30.39
2022-08-11T13:22:02.622Z,30.28
2022-08-11T13:23:37.845Z,30.15
2022-08-11T13:25:14.900Z,30.07
2022-08-11T13:26:50.745Z,30.14
2022-08-11T13:28:25.044Z,30.05
2022-08-11T13:30:13.126Z,29.95
2022-08-11T13:31:47.362Z,29.78
2022-08-11T13:33:21.105Z,29.75
2022-08-11T13:34:55.247Z,29.85
2022-08-11T13:36:29.183Z,29.89
2022-08-11T13:38:18.593Z,29.96
2022-08-11T13:39:53.981Z,29.98
2022-08-11T13:41:42.091Z,29.97
2022-08-11T13:43:18.376Z,29.87
2022-08-11T13:44:52.374Z,29.74
2022-08-11T13:46:28.723Z,29.65
2022-08-11T13:48:04.885Z,29.55
2022-08-11T13:49:41.168Z,29.39
2022-08-11T13:51:34.989Z,29.40
2022-08-11T13:53:09.283Z,29.45
2022-08-11T13:54:44.720Z,29.58
2022-08-11T13:56:18.237Z,29.61
2022-08-11T13:58:07.597Z,29.66
2022-08-11T13:59:56.206Z,29.64
2022-08-11T14:02:19.221Z,29.70
2022-08-11T14:04:29.663Z,29.80
2022-08-11T14:05:29.598Z,29.72
2022-08-11T14:07:07.882Z,29.62
2022-08-11T14:08:46.735Z,29.61
2022-08-11T14:10:23.125Z,29.58
2022-08-11T14:12:24.354Z,29.64
2022-08-11T14:13:58.805Z,29.67
2022-08-11T14:15:36.288Z,29.59
2022-08-11T14:17:11.043Z,29.59
2022-08-11T14:18:50.863Z,29.67
2022-08-11T14:20:39.565Z,29.73
2022-08-11T14:22:15.772Z,29.66
2022-08-11T14:23:50.935Z,29.63
2022-08-11T14:25:59.571Z,29.67
2022-08-11T14:28:30.078Z,29.61
2022-08-11T14:29:21.584Z,29.64
2022-08-11T14:31:00.527Z,29.51
2022-08-11T14:32:35.500Z,29.51
2022-08-11T14:34:28.666Z,29.68
2022-08-11T14:36:06.432Z,29.86
2022-08-11T14:37:41.145Z,29.90
2022-08-11T14:39:17.279Z,29.93
2022-08-11T14:41:08.583Z,29.95
2022-08-11T14:42:59.497Z,29.91
2022-08-11T14:44:53.390Z,29.85
2022-08-11T14:46:46.085Z,29.86
2022-08-11T14:48:19.653Z,29.89
2022-08-11T14:50:04.997Z,29.90
2022-08-11T14:51:47.135Z,29.94
2022-08-11T14:53:24.293Z,29.96
2022-08-11T14:55:15.370Z,29.96
2022-08-11T14:56:48.272Z,30.01
2022-08-11T14:58:24.523Z,30.06
2022-08-11T15:00:01.631Z,30.07
2022-08-11T15:01:53.976Z,30.16
2022-08-11T15:03:30.224Z,30.20
2022-08-11T15:05:05.106Z,30.20
2022-08-11T15:06:39.120Z,30.05
2022-08-11T15:08:15.723Z,29.95
2022-08-11T15:11:59.399Z,30.02
2022-08-11T15:13:33.533Z,29.95
2022-08-11T15:15:26.204Z,29.78
2022-08-11T15:17:08.685Z,29.61
2022-08-11T15:18:42.273Z,29.48
2022-08-11T15:20:35.608Z,29.39
2022-08-11T15:22:28.238Z,29.34
2022-08-11T15:24:20.602Z,29.31
2022-08-11T15:25:58.962Z,29.31
2022-08-11T15:27:52.424Z,29.31
2022-08-11T15:29:48.288Z,29.17
2022-08-11T15:31:37.547Z,29.15
2022-08-11T15:33:33.203Z,29.20
2022-08-11T15:35:24.974Z,29.13
2022-08-11T15:37:17.953Z,29.07
2022-08-11T15:38:56.297Z,29.10
2022-08-11T15:40:49.940Z,29.07
2022-08-11T15:42:40.489Z,29.01
2022-08-11T15:45:01.137Z,28.90
2022-08-11T15:46:33.748Z,28.92
2022-08-11T15:48:10.671Z,28.85
2022-08-11T15:50:11.301Z,28.74
2022-08-11T15:51:46.708Z,28.75
2022-08-11T15:53:28.236Z,28.72
2022-08-11T15:55:03.680Z,28.68
2022-08-11T15:56:41.076Z,28.63
2022-08-11T15:58:33.201Z,28.61
2022-08-11T16:00:25.873Z,28.55
2022-08-11T16:02:27.465Z,28.48
2022-08-11T16:04:14.479Z,28.47
2022-08-11T16:05:53.130Z,28.48
2022-08-11T16:07:31.158Z,28.45
2022-08-11T16:09:08.923Z,28.37
2022-08-11T16:10:56.312Z,28.28
2022-08-11T16:12:33.119Z,28.29
2022-08-11T16:14:25.908Z,28.25
2022-08-11T16:16:15.103Z,28.20
2022-08-11T16:17:51.717Z,28.16
2022-08-11T16:19:28.949Z,28.11
2022-08-11T16:21:04.123Z,28.10
2022-08-11T16:22:40.516Z,28.09
2022-08-11T16:26:38.715Z,28.09
2022-08-11T16:27:08.056Z,28.11
2022-08-11T16:28:07.266Z,28.06
2022-08-11T16:29:43.876Z,28.01
2022-08-11T16:31:18.173Z,27.99
2022-08-11T16:32:53.863Z,27.97
2022-08-11T16:34:44.999Z,27.93
2022-08-11T16:36:38.786Z,27.93
2022-08-11T16:38:31.722Z,27.93
2022-08-11T16:40:07.175Z,27.94
2022-08-11T16:42:00.977Z,27.93
2022-08-11T16:43:57.915Z,27.92
2022-08-11T16:45:48.939Z,27.88
2022-08-11T16:48:03.525Z,27.88
2022-08-11T16:49:21.126Z,27.87
2022-08-11T16:50:54.703Z,27.86
2022-08-11T16:52:29.432Z,27.85
2022-08-11T16:54:05.274Z,27.83
2022-08-11T16:55:52.112Z,27.77
2022-08-11T16:57:44.985Z,27.74
2022-08-11T16:59:22.397Z,27.70
2022-08-11T17:00:55.088Z,27.63
2022-08-11T17:02:51.626Z,27.56
2022-08-11T17:04:55.036Z,27.53
2022-08-11T17:06:42.214Z,27.50
2022-08-11T17:08:33.347Z,27.37
2022-08-11T17:10:38.277Z,27.42
2022-08-11T17:12:44.643Z,27.37
2022-08-11T17:14:35.579Z,27.33
2022-08-11T17:16:13.546Z,27.28
2022-08-11T17:17:46.710Z,27.25
2022-08-11T17:20:40.017Z,27.19
2022-08-11T17:21:23.964Z,27.15
2022-08-11T17:23:15.785Z,27.08
2022-08-11T17:24:51.780Z,27.06
2022-08-11T17:26:51.593Z,27.04
2022-08-11T17:28:25.276Z,27.04
2022-08-11T17:30:02.856Z,27.03
2022-08-11T17:31:53.402Z,27.04
2022-08-11T17:33:43.895Z,27.03
2022-08-11T17:35:31.256Z,27.00
2022-08-11T17:37:06.062Z,26.98
2022-08-11T17:38:40.165Z,26.97
2022-08-11T17:40:18.550Z,26.97
2022-08-11T17:42:11.047Z,26.93
2022-08-11T17:44:02.377Z,26.89
2022-08-11T17:45:53.148Z,26.84
2022-08-11T17:47:45.918Z,26.70
2022-08-11T17:49:21.544Z,26.68
2022-08-11T17:50:57.059Z,26.66
2022-08-11T17:52:49.407Z,26.62
2022-08-11T17:54:41.971Z,26.63
2022-08-11T17:56:36.547Z,26.63
2022-08-11T17:58:27.839Z,26.57
2022-08-11T18:00:03.513Z,26.49
2022-08-11T18:01:47.239Z,26.47
2022-08-11T18:03:33.047Z,26.39
2022-08-11T18:05:12.206Z,26.40
2022-08-11T18:06:48.203Z,26.37
2022-08-11T18:08:40.138Z,26.35
2022-08-11T18:10:31.264Z,26.31
2022-08-11T18:12:25.388Z,26.28
2022-08-11T18:14:17.570Z,26.23
2022-08-11T18:16:09.725Z,26.21
2022-08-11T18:18:00.509Z,26.11
2022-08-11T18:19:51.627Z,26.04
2022-08-11T18:21:47.027Z,25.89
2022-08-11T18:23:58.080Z,25.80
2022-08-11T18:25:52.046Z,25.60
2022-08-11T18:27:47.041Z,25.38
2022-08-11T18:29:41.718Z,25.13
2022-08-11T18:31:35.979Z,24.95
2022-08-11T18:35:40.436Z,24.91
2022-08-11T18:37:34.505Z,24.83
2022-08-11T18:39:29.064Z,24.85
2022-08-11T18:41:21.060Z,24.84
2022-08-11T18:43:16.178Z,24.82
2022-08-11T18:45:09.750Z,24.78
2022-08-11T18:47:08.077Z,24.69
2022-08-11T18:49:05.829Z,24.73
2022-08-11T18:51:00.682Z,24.62
2022-08-11T18:53:11.750Z,24.62
2022-08-11T18:55:05.784Z,24.54
2022-08-11T18:57:04.044Z,24.43
2022-08-11T18:59:00.116Z,24.32
2022-08-11T19:00:53.467Z,24.26
2022-08-11T19:02:48.947Z,24.12
2022-08-11T19:04:42.746Z,24.21
2022-08-11T19:06:40.189Z,24.20
2022-08-11T19:08:32.364Z,24.18
2022-08-11T19:10:24.322Z,24.18
2022-08-11T19:12:17.680Z,24.21
2022-08-11T19:14:11.282Z,24.27
2022-08-11T19:16:05.593Z,24.28
2022-08-11T19:18:00.454Z,24.27
2022-08-11T19:19:53.750Z,24.20
2022-08-11T19:21:46.590Z,24.12
2022-08-11T19:23:52.481Z,24.05
2022-08-11T19:25:45.836Z,23.96
2022-08-11T19:27:39.425Z,23.87
2022-08-11T19:30:06.927Z,23.84
2022-08-11T19:31:45.479Z,23.82
2022-08-11T19:33:57.412Z,23.80
2022-08-11T19:35:47.781Z,23.78
2022-08-11T19:37:44.485Z,23.73
2022-08-11T19:39:37.127Z,23.69
2022-08-11T19:41:56.530Z,23.65
2022-08-11T19:43:42.384Z,23.58
2022-08-11T19:45:35.602Z,23.51
2022-08-11T19:47:27.824Z,23.45
2022-08-11T19:49:19.589Z,23.45
2022-08-11T19:51:12.539Z,23.43
2022-08-11T19:53:03.651Z,23.39
2022-08-11T19:55:09.212Z,23.35
2022-08-11T19:57:01.593Z,23.30
2022-08-11T19:58:54.665Z,23.28
2022-08-11T20:00:47.643Z,23.17
2022-08-11T20:02:42.436Z,23.08
2022-08-11T20:04:33.416Z,23.01
2022-08-11T20:06:27.012Z,22.85
2022-08-11T20:08:18.976Z,22.81
2022-08-11T20:10:10.335Z,22.74
2022-08-11T20:12:04.494Z,22.58
2022-08-11T20:13:58.682Z,22.42
2022-08-11T20:15:51.745Z,22.33
2022-08-11T20:17:45.323Z,22.14
2022-08-11T20:19:55.935Z,21.98
2022-08-11T20:21:48.944Z,21.85
2022-08-11T20:23:41.210Z,21.80
2022-08-11T20:25:32.649Z,21.75
2022-08-11T20:27:25.778Z,21.77
2022-08-11T20:29:18.633Z,21.73
2022-08-11T20:31:12.136Z,21.77
2022-08-11T20:33:03.240Z,21.78
2022-08-11T20:34:56.127Z,21.68
2022-08-11T20:36:54.467Z,21.70
2022-08-11T20:38:49.982Z,21.60
2022-08-11T20:40:43.755Z,21.57
2022-08-11T20:42:37.125Z,21.56
2022-08-11T20:44:29.261Z,21.57
2022-08-11T20:46:22.962Z,21.55
2022-08-11T20:48:17.400Z,21.51
2022-08-11T20:50:09.263Z,21.49
2022-08-11T20:52:10.760Z,21.45
2022-08-11T20:54:05.453Z,21.39
2022-08-11T20:55:58.239Z,21.37
2022-08-11T20:58:03.895Z,21.29
2022-08-11T20:59:57.124Z,21.21
2022-08-11T21:01:53.703Z,21.15
2022-08-11T21:03:54.691Z,21.05
2022-08-11T21:06:05.421Z,21.00
2022-08-11T21:08:07.341Z,21.00
2022-08-11T21:10:09.442Z,20.97
2022-08-11T21:12:01.567Z,20.98
2022-08-11T21:13:58.110Z,20.97
2022-08-11T21:16:01.837Z,20.96
2022-08-11T21:18:00.358Z,20.92
2022-08-11T21:20:07.774Z,20.80
2022-08-11T21:22:03.816Z,20.62
2022-08-11T21:24:00.216Z,20.51
2022-08-11T21:25:55.652Z,20.50
2022-08-11T21:27:51.700Z,20.41
2022-08-11T21:29:44.575Z,20.31
2022-08-11T21:31:36.928Z,20.29
2022-08-11T21:33:29.203Z,20.28
2022-08-11T21:35:21.441Z,20.31
2022-08-11T21:37:12.317Z,20.39
2022-08-11T21:39:04.884Z,20.42
2022-08-11T21:40:58.369Z,20.40
2022-08-11T21:42:53.175Z,20.42
2022-08-11T21:44:45.207Z,20.38
2022-08-11T21:46:39.478Z,20.31
2022-08-11T21:48:32.495Z,20.23
2022-08-11T21:50:24.276Z,20.14
2022-08-11T21:52:15.272Z,20.06
2022-08-11T21:54:06.961Z,19.98
2022-08-11T21:55:58.129Z,19.98
2022-08-11T21:57:50.251Z,19.93
2022-08-11T21:59:50.361Z,19.87
2022-08-11T22:01:41.916Z,19.84
2022-08-11T22:03:49.299Z,19.81
2022-08-11T22:05:41.625Z,19.81
2022-08-11T22:07:34.383Z,19.82
2022-08-11T22:09:32.190Z,19.77
2022-08-11T22:11:31.746Z,19.78
2022-08-11T22:13:23.650Z,19.78
2022-08-11T22:15:14.820Z,19.80
2022-08-11T22:17:05.856Z,19.81
2022-08-11T22:18:59.123Z,19.80
2022-08-11T22:20:53.702Z,19.76
2022-08-11T22:22:51.874Z,19.65
2022-08-11T22:24:46.165Z,19.65
2022-08-11T22:26:37.509Z,19.61
2022-08-11T22:28:31.752Z,19.62
2022-08-11T22:30:25.516Z,19.56
2022-08-11T22:32:17.462Z,19.60
2022-08-11T22:34:09.312Z,19.54
2022-08-11T22:36:01.973Z,19.50
2022-08-11T22:37:54.205Z,19.50
2022-08-11T22:39:56.585Z,19.49
2022-08-11T22:41:53.282Z,19.43
2022-08-11T22:43:44.202Z,19.37
2022-08-11T22:45:36.301Z,19.36
2022-08-11T22:47:29.442Z,19.32
2022-08-11T22:49:32.857Z,19.22
2022-08-11T22:51:44.686Z,19.09
2022-08-11T22:53:58.407Z,19.03
2022-08-11T22:55:48.721Z,18.98
2022-08-11T22:57:41.367Z,18.94
2022-08-11T22:59:53.754Z,18.92
2022-08-11T23:01:55.353Z,18.89
2022-08-11T23:03:47.661Z,18.82
2022-08-11T23:05:40.632Z,18.78
2022-08-11T23:07:50.568Z,18.74
2022-08-11T23:09:43.274Z,18.72
2022-08-11T23:12:06.058Z,18.71
2022-08-11T23:13:45.577Z,18.65
2022-08-11T23:15:40.010Z,18.70
2022-08-11T23:17:32.053Z,18.63
2022-08-11T23:20:06.787Z,18.56
2022-08-11T23:21:37.226Z,18.56
2022-08-11T23:23:28.834Z,18.55
2022-08-11T23:25:19.524Z,18.50
2022-08-11T23:27:10.683Z,18.55
2022-08-11T23:29:05.008Z,18.54
2022-08-11T23:30:59.078Z,18.52
2022-08-11T23:32:51.138Z,18.48
2022-08-11T23:35:03.599Z,18.41
2022-08-11T23:37:00.440Z,18.33
2022-08-11T23:38:52.037Z,18.34